Time;durP1;ratioP1;P1;durP2;ratioP2;P2;SDS_P1;SDS_P2;PMS_P1;PMS_P2;Temp;Humidity;BMP_temperature;BMP_pressure;BME280_temperature;BME280_humidity;BME280_pressure;Samples;Min_cycle;Max_cycle;Signal;HPM_P1;HPM_P2
2022/09/06 00:01:33;;;;;;;2.43;1.73;;;21.90;99.90;;;;;;5031188;28;20308;-73
2022/09/06 00:03:58;;;;;;;4.53;2.30;;;21.90;99.90;;;;;;5031101;28;20191;-73
2022/09/06 00:06:24;;;;;;;3.30;2.10;;;21.80;99.90;;;;;;5032189;28;20171;-73
2022/09/06 00:08:50;;;;;;;6.87;2.87;;;21.80;99.90;;;;;;5032083;28;20294;-73
2022/09/06 00:11:16;;;;;;;1.50;1.20;;;21.80;99.90;;;;;;5032241;28;20179;-73
2022/09/06 00:13:42;;;;;;;1.90;1.63;;;21.70;99.90;;;;;;5032298;28;20199;-73
2022/09/06 00:16:22;;;;;;;2.10;1.83;;;21.00;99.90;;;;;;5031980;28;20464;-73
2022/09/06 00:18:51;;;;;;;2.40;1.90;;;20.30;99.90;;;;;;5032253;28;20413;-73
2022/09/06 00:21:34;;;;;;;3.63;2.00;;;19.80;99.90;;;;;;5031963;28;20481;-73
2022/09/06 00:24:00;;;;;;;4.77;2.90;;;19.30;99.90;;;;;;5030804;28;20434;-73
2022/09/06 00:26:26;;;;;;;3.80;2.47;;;19.10;99.90;;;;;;5032028;28;20838;-73
2022/09/06 00:28:51;;;;;;;4.77;2.80;;;18.90;99.90;;;;;;5032125;28;20163;-73
2022/09/06 00:31:20;;;;;;;3.50;2.30;;;18.80;99.90;;;;;;5032156;28;20701;-72
2022/09/06 00:33:46;;;;;;;4.30;2.23;;;18.70;99.90;;;;;;5030577;28;20204;-72
2022/09/06 00:36:12;;;;;;;3.33;3.00;;;18.60;99.90;;;;;;5031554;28;21097;-72
2022/09/06 00:38:39;;;;;;;11.50;3.63;;;18.50;99.90;;;;;;5031100;28;20410;-73
2022/09/06 00:41:06;;;;;;;6.07;3.70;;;18.50;99.90;;;;;;5031806;28;20456;-73
2022/09/06 00:43:32;;;;;;;3.03;2.83;;;18.50;99.90;;;;;;5032017;28;20406;-72
2022/09/06 00:45:58;;;;;;;3.37;2.13;;;18.50;99.90;;;;;;5031503;28;20425;-73
2022/09/06 00:48:24;;;;;;;2.43;2.10;;;18.60;99.90;;;;;;5031981;28;20268;-72
2022/09/06 00:50:57;;;;;;;4.47;3.00;;;18.60;99.90;;;;;;5031915;28;20473;-72
2022/09/06 00:53:23;;;;;;;3.33;3.03;;;18.60;99.90;;;;;;5031727;28;20430;-72
2022/09/06 00:55:49;;;;;;;2.90;2.47;;;18.70;99.90;;;;;;5031625;28;20414;-73
2022/09/06 00:58:15;;;;;;;3.73;2.10;;;18.70;99.90;;;;;;5033092;28;20429;-73
2022/09/06 01:00:40;;;;;;;3.67;3.13;;;18.70;99.90;;;;;;5035952;28;20313;-72
2022/09/06 01:03:06;;;;;;;5.13;2.97;;;18.70;99.90;;;;;;5035975;28;20260;-72
2022/09/06 01:05:47;;;;;;;6.10;3.63;;;18.60;99.90;;;;;;5035607;28;20672;-72
2022/09/06 01:08:39;;;;;;;3.57;3.27;;;18.60;99.90;;;;;;5035880;28;20254;-73
2022/09/06 01:11:32;;;;;;;3.90;2.50;;;18.60;99.90;;;;;;5015363;28;20794;-72
2022/09/06 01:14:06;;;;;;;4.13;2.93;;;18.60;99.90;;;;;;5015795;28;20480;-72
2022/09/06 01:17:06;;;;;;;6.30;3.30;;;18.70;99.90;;;;;;5015645;28;20499;-72
2022/09/06 01:20:08;;;;;;;5.70;3.73;;;18.80;99.90;;;;;;5012701;28;20833;-72
2022/09/06 01:22:36;;;;;;;5.43;3.20;;;18.70;99.90;;;;;;5029205;28;20446;-73
2022/09/06 01:25:33;;;;;;;3.70;3.20;;;18.70;99.90;;;;;;5033707;28;20815;-72
2022/09/06 01:28:20;;;;;;;4.80;3.40;;;18.70;99.90;;;;;;5035362;28;20497;-72
2022/09/06 01:31:04;;;;;;;8.23;3.37;;;18.70;99.90;;;;;;5035471;28;20410;-72
2022/09/06 01:33:50;;;;;;;4.93;3.17;;;18.70;99.90;;;;;;5035114;28;20414;-72
2022/09/06 01:36:23;;;;;;;6.17;3.57;;;18.60;99.90;;;;;;5034922;28;20410;-73
2022/09/06 01:38:49;;;;;;;3.70;2.77;;;18.60;99.90;;;;;;5035313;28;20398;-73
2022/09/06 01:41:14;;;;;;;3.53;3.23;;;18.60;99.90;;;;;;5035316;28;20457;-72
2022/09/06 01:43:43;;;;;;;6.17;3.43;;;18.60;99.90;;;;;;5033963;28;20663;-72
2022/09/06 01:46:32;;;;;;;5.40;3.53;;;18.60;99.90;;;;;;5034487;28;20175;-72
2022/09/06 01:49:23;;;;;;;8.70;3.83;;;18.60;99.90;;;;;;5033728;28;20415;-73
2022/09/06 01:52:15;;;;;;;3.33;2.67;;;18.70;99.90;;;;;;5033764;28;20508;-72
2022/09/06 01:55:11;;;;;;;4.17;3.50;;;18.60;99.90;;;;;;5032244;28;20430;-72
2022/09/06 01:57:55;;;;;;;4.37;3.50;;;18.70;99.90;;;;;;5033647;28;20536;-73
2022/09/06 02:00:24;;;;;;;4.73;3.07;;;18.70;99.90;;;;;;5033717;28;20445;-72
2022/09/06 02:03:18;;;;;;;4.33;3.93;;;18.70;99.90;;;;;;5033387;28;20442;-72
2022/09/06 02:05:46;;;;;;;5.63;3.57;;;18.70;99.90;;;;;;5033267;28;20437;-72
2022/09/06 02:08:39;;;;;;;3.17;2.70;;;18.70;99.90;;;;;;5033493;28;20870;-73
2022/09/06 02:11:06;;;;;;;3.30;2.70;;;18.80;99.90;;;;;;5033289;28;20480;-73
2022/09/06 02:13:43;;;;;;;3.50;3.20;;;18.80;99.90;;;;;;5033346;28;20818;-73
2022/09/06 02:16:14;;;;;;;6.93;3.83;;;18.80;99.90;;;;;;5033327;28;20416;-72
2022/09/06 02:18:52;;;;;;;3.63;3.33;;;18.80;99.90;;;;;;5033380;28;20406;-72
2022/09/06 02:21:21;;;;;;;4.93;3.77;;;18.80;99.90;;;;;;5033032;28;20811;-73
2022/09/06 02:23:48;;;;;;;6.70;4.00;;;18.80;99.90;;;;;;5013428;28;20808;-72
2022/09/06 02:26:20;;;;;;;4.27;3.07;;;18.70;99.90;;;;;;5013265;28;20487;-73
2022/09/06 02:28:46;;;;;;;9.73;3.80;;;18.80;99.90;;;;;;5013669;28;20407;-73
2022/09/06 02:31:18;;;;;;;3.93;2.87;;;18.80;99.90;;;;;;5013597;28;20815;-73
2022/09/06 02:33:45;;;;;;;4.13;2.80;;;18.80;99.90;;;;;;5015682;28;20473;-72
2022/09/06 02:36:11;;;;;;;3.70;3.20;;;18.80;99.90;;;;;;5032840;28;20756;-73
2022/09/06 02:38:39;;;;;;;3.30;3.00;;;18.80;99.90;;;;;;5033098;28;20995;-72
2022/09/06 02:41:05;;;;;;;4.30;3.50;;;18.80;99.90;;;;;;5032886;28;20453;-73
2022/09/06 02:43:31;;;;;;;4.50;3.77;;;18.80;99.90;;;;;;5033118;28;20717;-73
2022/09/06 02:45:57;;;;;;;3.40;3.13;;;18.80;99.90;;;;;;5032345;28;20422;-74
2022/09/06 02:48:22;;;;;;;5.10;4.60;;;18.80;99.90;;;;;;5033000;28;20168;-73
2022/09/06 02:50:48;;;;;;;5.50;4.13;;;18.80;99.90;;;;;;4995981;28;1075106;-73
2022/09/06 02:53:14;;;;;;;3.67;3.20;;;18.80;99.90;;;;;;5033683;28;20411;-73
2022/09/06 02:55:40;;;;;;;4.80;3.60;;;18.80;99.90;;;;;;5033505;28;20175;-73
2022/09/06 02:58:09;;;;;;;3.20;2.90;;;18.70;99.90;;;;;;5032257;28;20442;-73
2022/09/06 03:00:36;;;;;;;5.50;3.70;;;18.80;99.90;;;;;;5033746;28;20681;-73
2022/09/06 03:03:02;;;;;;;3.63;3.00;;;18.80;99.90;;;;;;5033612;28;20413;-72
2022/09/06 03:05:27;;;;;;;5.80;3.27;;;18.80;99.90;;;;;;5033219;28;20415;-73
2022/09/06 03:07:54;;;;;;;3.97;3.63;;;18.70;99.90;;;;;;5032322;28;20179;-73
2022/09/06 03:10:20;;;;;;;5.43;3.87;;;18.70;99.90;;;;;;5033158;28;20247;-73
2022/09/06 03:12:46;;;;;;;4.30;3.70;;;18.70;99.90;;;;;;5033395;28;20406;-73
2022/09/06 03:15:13;;;;;;;6.37;4.80;;;18.70;99.90;;;;;;5032914;28;20453;-73
2022/09/06 03:17:40;;;;;;;4.70;4.00;;;18.60;99.90;;;;;;5033341;28;20540;-73
2022/09/06 03:20:08;;;;;;;4.77;3.70;;;18.60;99.90;;;;;;5032814;28;20446;-73
2022/09/06 03:22:38;;;;;;;4.57;4.07;;;18.70;99.90;;;;;;5031601;28;20972;-73
2022/09/06 03:25:05;;;;;;;3.97;3.10;;;18.70;99.90;;;;;;5032162;28;20803;-73
2022/09/06 03:27:31;;;;;;;4.90;4.40;;;18.70;99.90;;;;;;5033109;28;20403;-73
2022/09/06 03:29:57;;;;;;;6.13;3.93;;;18.60;99.90;;;;;;5033119;28;20398;-73
2022/09/06 03:32:22;;;;;;;6.20;3.87;;;18.50;99.90;;;;;;5033075;28;20446;-73
2022/09/06 03:34:48;;;;;;;5.43;3.73;;;18.50;99.90;;;;;;5032417;28;20187;-73
2022/09/06 03:37:13;;;;;;;10.40;4.10;;;18.60;99.90;;;;;;5033024;28;20168;-73
2022/09/06 03:39:39;;;;;;;4.20;3.30;;;18.60;99.90;;;;;;5033122;28;20160;-73
2022/09/06 03:42:05;;;;;;;5.67;4.10;;;18.50;99.90;;;;;;5032912;28;20251;-73
2022/09/06 03:44:30;;;;;;;4.37;3.77;;;18.50;99.90;;;;;;5032482;28;20215;-73
2022/09/06 03:46:56;;;;;;;5.13;3.90;;;18.50;99.90;;;;;;5032657;28;20640;-73
2022/09/06 03:49:21;;;;;;;6.03;4.03;;;18.40;99.90;;;;;;5033142;28;20246;-74
2022/09/06 03:51:47;;;;;;;4.80;4.30;;;18.40;99.90;;;;;;5032338;28;20274;-73
2022/09/06 03:54:12;;;;;;;3.83;3.33;;;18.40;99.90;;;;;;5032396;28;20221;-73
2022/09/06 03:56:38;;;;;;;4.27;3.87;;;18.40;99.90;;;;;;5032524;28;20250;-74
2022/09/06 03:59:03;;;;;;;4.67;3.50;;;18.20;99.90;;;;;;5032479;28;20216;-73
2022/09/06 04:01:29;;;;;;;8.00;4.33;;;18.20;99.90;;;;;;5032495;28;20203;-73
2022/09/06 04:03:54;;;;;;;3.40;2.80;;;18.10;99.90;;;;;;5032461;28;20188;-73
2022/09/06 04:06:20;;;;;;;6.60;4.00;;;18.10;99.90;;;;;;5032155;28;20176;-73
2022/09/06 04:08:45;;;;;;;7.87;4.80;;;18.00;99.90;;;;;;5032399;28;20178;-73
2022/09/06 04:11:11;;;;;;;5.47;4.30;;;17.90;99.90;;;;;;5032037;28;20172;-73
2022/09/06 04:13:37;;;;;;;7.43;5.30;;;17.90;99.90;;;;;;5032363;28;20206;-73
2022/09/06 04:16:04;;;;;;;5.07;4.50;;;17.80;99.90;;;;;;5031988;28;20176;-73
2022/09/06 04:18:29;;;;;;;7.10;4.67;;;17.80;99.90;;;;;;5032169;28;20251;-73
2022/09/06 04:20:56;;;;;;;5.60;3.90;;;17.80;99.90;;;;;;5032156;28;20553;-72
2022/09/06 04:23:23;;;;;;;6.70;4.60;;;17.80;99.90;;;;;;5031897;28;20518;-73
2022/09/06 04:25:51;;;;;;;5.70;4.50;;;17.70;99.90;;;;;;5031424;28;20904;-73
2022/09/06 04:28:17;;;;;;;6.47;4.13;;;17.60;99.90;;;;;;5032153;28;20408;-73
2022/09/06 04:30:44;;;;;;;5.60;4.47;;;17.50;99.90;;;;;;5032134;28;20437;-73
2022/09/06 04:33:09;;;;;;;6.77;5.03;;;17.50;99.90;;;;;;5032044;28;20417;-72
2022/09/06 04:35:36;;;;;;;4.63;3.97;;;17.50;99.90;;;;;;5031728;28;20805;-73
2022/09/06 04:38:03;;;;;;;5.93;4.97;;;17.40;99.90;;;;;;5031652;28;20191;-73
2022/09/06 04:40:28;;;;;;;5.87;3.80;;;17.30;99.90;;;;;;5031919;28;20549;-73
2022/09/06 04:42:54;;;;;;;5.37;4.30;;;17.30;99.90;;;;;;5032295;28;20438;-73
2022/09/06 04:45:20;;;;;;;10.93;4.87;;;17.30;99.90;;;;;;5030348;28;20195;-73
2022/09/06 04:47:45;;;;;;;7.53;5.20;;;17.30;99.90;;;;;;5031946;28;20294;-73
2022/09/06 04:50:11;;;;;;;9.57;5.07;;;17.30;99.90;;;;;;5031763;28;20202;-72
2022/09/06 04:52:36;;;;;;;5.33;4.83;;;17.20;99.90;;;;;;5031864;28;20172;-73
2022/09/06 04:55:03;;;;;;;5.50;4.77;;;17.10;99.90;;;;;;5031363;28;20206;-73
2022/09/06 04:57:28;;;;;;;9.20;5.03;;;17.00;99.90;;;;;;5031946;28;20168;-73
2022/09/06 04:59:54;;;;;;;9.77;5.80;;;17.00;99.90;;;;;;5031741;28;20544;-73
2022/09/06 05:02:19;;;;;;;11.57;5.70;;;17.00;99.90;;;;;;5030686;28;20182;-74
2022/09/06 05:04:45;;;;;;;5.00;4.10;;;17.00;99.90;;;;;;5031610;28;20274;-74
2022/09/06 05:07:10;;;;;;;6.67;5.97;;;17.10;99.90;;;;;;5031694;28;20175;-74
2022/09/06 05:09:36;;;;;;;9.27;7.13;;;17.10;99.90;;;;;;5031820;28;20175;-73
2022/09/06 05:12:02;;;;;;;11.40;7.67;;;17.10;99.90;;;;;;5031777;28;20222;-73
2022/09/06 05:14:28;;;;;;;12.23;7.30;;;17.10;99.90;;;;;;5031253;28;20191;-72
2022/09/06 05:16:54;;;;;;;12.23;6.27;;;17.20;99.90;;;;;;5031720;28;20498;-73
2022/09/06 05:19:20;;;;;;;8.20;6.60;;;17.10;99.90;;;;;;5031455;28;20462;-74
2022/09/06 05:21:46;;;;;;;14.77;6.63;;;17.10;99.90;;;;;;5031609;28;20278;-73
2022/09/06 05:24:11;;;;;;;9.23;5.83;;;17.10;99.90;;;;;;5031494;28;20529;-74
2022/09/06 05:26:37;;;;;;;6.90;5.77;;;17.10;99.90;;;;;;5031890;28;20203;-73
2022/09/06 05:29:02;;;;;;;8.67;6.10;;;17.10;99.90;;;;;;5031501;28;20215;-74
2022/09/06 05:31:30;;;;;;;6.70;6.00;;;17.10;99.90;;;;;;5031450;28;20255;-74
2022/09/06 05:33:57;;;;;;;7.60;5.87;;;17.10;99.90;;;;;;5031410;28;20230;-73
2022/09/06 05:36:24;;;;;;;7.50;5.67;;;17.20;99.90;;;;;;5029910;28;20460;-73
2022/09/06 05:38:50;;;;;;;7.90;5.53;;;17.20;99.90;;;;;;5031465;28;20413;-73
2022/09/06 05:41:15;;;;;;;5.33;4.50;;;17.30;99.90;;;;;;5031183;28;20476;-73
2022/09/06 05:43:41;;;;;;;6.10;5.50;;;17.40;99.90;;;;;;5031731;28;20430;-73
2022/09/06 05:46:08;;;;;;;6.70;5.23;;;17.50;99.90;;;;;;5034807;28;20249;-73
2022/09/06 05:48:33;;;;;;;6.33;4.80;;;17.60;99.90;;;;;;5035193;28;20186;-73
2022/09/06 05:51:04;;;;;;;7.40;4.87;;;17.70;99.90;;;;;;5034952;28;20433;-73
2022/09/06 05:53:43;;;;;;;6.83;5.40;;;17.80;99.90;;;;;;5034660;28;20576;-73
2022/09/06 05:56:11;;;;;;;5.03;4.53;;;17.90;99.90;;;;;;5034733;28;20493;-73
2022/09/06 05:58:37;;;;;;;5.33;4.73;;;18.00;99.90;;;;;;5034877;28;20410;-73
2022/09/06 06:01:21;;;;;;;8.00;7.27;;;18.20;99.90;;;;;;5034862;28;20450;-73
2022/09/06 06:04:01;;;;;;;5.77;4.83;;;18.40;99.90;;;;;;5034605;28;20500;-73
2022/09/06 06:06:29;;;;;;;7.07;6.13;;;18.70;99.90;;;;;;5034188;28;20447;-73
2022/09/06 06:08:55;;;;;;;7.67;5.43;;;19.20;99.90;;;;;;5034632;28;20481;-74
2022/09/06 06:11:21;;;;;;;6.40;5.27;;;19.70;99.90;;;;;;5034655;28;20489;-73
2022/09/06 06:13:47;;;;;;;5.07;4.57;;;20.30;99.90;;;;;;5034669;28;20454;-73
2022/09/06 06:16:15;;;;;;;8.60;5.80;;;20.80;99.90;;;;;;5034313;28;20887;-73
2022/09/06 06:18:41;;;;;;;8.53;4.90;;;21.50;99.90;;;;;;5034176;28;20176;-73
2022/09/06 06:21:14;;;;;;;8.03;5.13;;;22.20;99.90;;;;;;5034228;28;20461;-73
2022/09/06 06:23:42;;;;;;;6.23;4.17;;;22.80;99.90;;;;;;5034341;28;20891;-73
2022/09/06 06:26:08;;;;;;;11.33;5.03;;;23.40;99.90;;;;;;5033486;28;20481;-74
2022/09/06 06:28:34;;;;;;;6.60;4.50;;;23.90;99.90;;;;;;5034266;28;20406;-74
2022/09/06 06:31:04;;;;;;;6.90;5.10;;;24.40;99.90;;;;;;5033140;28;20947;-74
2022/09/06 06:33:31;;;;;;;9.13;6.17;;;24.70;99.90;;;;;;5034388;28;20786;-75
2022/09/06 06:36:20;;;;;;;10.40;5.77;;;25.10;99.90;;;;;;5032846;28;20422;-74
2022/09/06 06:38:47;;;;;;;7.43;5.00;;;25.40;99.90;;;;;;5033566;28;20422;-74
2022/09/06 06:41:15;;;;;;;5.70;5.07;;;25.90;99.90;;;;;;5032378;28;20953;-74
2022/09/06 06:43:41;;;;;;;4.87;4.47;;;26.00;99.90;;;;;;5034118;28;21041;-75
2022/09/06 06:46:09;;;;;;;8.80;5.07;;;26.30;99.90;;;;;;5032967;28;20440;-75
2022/09/06 06:48:36;;;;;;;9.10;5.47;;;26.30;99.90;;;;;;5032688;28;20420;-74
2022/09/06 06:51:02;;;;;;;6.20;5.30;;;25.80;99.90;;;;;;5033899;28;20832;-73
2022/09/06 06:53:28;;;;;;;6.83;4.93;;;24.80;99.90;;;;;;5032898;28;20407;-74
2022/09/06 06:55:54;;;;;;;6.20;5.60;;;24.40;99.90;;;;;;5031475;28;20403;-73
2022/09/06 06:58:20;;;;;;;6.90;6.20;;;24.00;99.90;;;;;;5033795;28;20172;-73
2022/09/06 07:00:45;;;;;;;4.70;4.20;;;23.80;99.90;;;;;;5033427;28;20202;-73
2022/09/06 07:03:11;;;;;;;6.23;4.70;;;23.40;99.90;;;;;;5032966;28;20178;-74
2022/09/06 07:05:39;;;;;;;10.53;4.53;;;23.20;99.90;;;;;;5032878;28;20563;-74
2022/09/06 07:08:06;;;;;;;4.83;4.33;;;23.10;99.90;;;;;;5033272;28;20415;-73
2022/09/06 07:10:32;;;;;;;5.17;3.97;;;23.00;99.90;;;;;;5033250;28;20501;-73
2022/09/06 07:12:58;;;;;;;4.83;4.03;;;23.00;99.90;;;;;;5033281;28;20410;-73
2022/09/06 07:15:24;;;;;;;7.07;4.60;;;23.00;99.90;;;;;;5031583;28;20441;-74
2022/09/06 07:17:51;;;;;;;9.17;4.50;;;23.10;99.90;;;;;;5033066;28;20541;-74
2022/09/06 07:20:19;;;;;;;6.23;4.37;;;23.60;99.90;;;;;;5031650;28;20633;-74
2022/09/06 07:22:44;;;;;;;5.83;5.10;;;24.30;99.90;;;;;;5033005;28;20406;-75
2022/09/06 07:25:11;;;;;;;5.20;4.33;;;25.10;99.90;;;;;;5032407;28;20445;-74
2022/09/06 07:27:37;;;;;;;9.13;4.90;;;26.00;99.90;;;;;;5033173;28;20220;-74
2022/09/06 07:30:03;;;;;;;4.73;4.30;;;26.60;99.90;;;;;;5032958;28;20804;-75
2022/09/06 07:32:30;;;;;;;4.30;3.90;;;27.20;99.90;;;;;;5033126;28;20168;-74
2022/09/06 07:34:55;;;;;;;7.30;4.57;;;27.80;99.90;;;;;;5032693;28;20195;-74
2022/09/06 07:37:21;;;;;;;3.63;3.20;;;28.20;99.90;;;;;;5032740;28;20418;-74
2022/09/06 07:39:47;;;;;;;3.60;3.03;;;28.20;99.90;;;;;;5032934;28;20179;-74
2022/09/06 07:42:12;;;;;;;3.30;3.03;;;27.60;99.90;;;;;;5032578;28;20199;-74
2022/09/06 07:44:38;;;;;;;5.60;3.13;;;27.20;99.90;;;;;;5032506;28;20195;-74
2022/09/06 07:47:05;;;;;;;4.17;3.77;;;26.60;99.90;;;;;;5032819;28;20225;-74
2022/09/06 07:49:31;;;;;;;3.73;3.33;;;26.10;99.90;;;;;;5032532;28;20164;-73
2022/09/06 07:51:57;;;;;;;3.13;2.70;;;26.00;99.90;;;;;;5032909;28;21006;-74
2022/09/06 07:54:23;;;;;;;3.30;3.00;;;26.00;99.90;;;;;;5032473;28;20501;-74
2022/09/06 07:56:48;;;;;;;5.73;2.47;;;25.80;99.90;;;;;;5032730;28;20177;-74
2022/09/06 07:59:14;;;;;;;3.63;3.10;;;25.60;99.90;;;;;;5032623;28;20694;-74
2022/09/06 08:01:40;;;;;;;5.10;3.50;;;25.30;99.90;;;;;;5032306;28;20222;-74
2022/09/06 08:04:13;;;;;;;3.00;2.80;;;25.20;99.90;;;;;;5032570;28;20943;-74
2022/09/06 08:06:41;;;;;;;3.60;2.80;;;25.10;99.90;;;;;;5030662;28;20414;-73
2022/09/06 08:09:08;;;;;;;2.60;2.13;;;25.30;99.90;;;;;;5032485;28;20961;-73
2022/09/06 08:11:35;;;;;;;5.50;3.10;;;25.80;99.90;;;;;;5031125;28;20501;-73
2022/09/06 08:14:02;;;;;;;3.07;2.40;;;26.40;99.90;;;;;;5031994;28;20534;-74
2022/09/06 08:16:29;;;;;;;2.63;2.43;;;27.20;99.90;;;;;;5030737;28;20426;-74
2022/09/06 08:18:57;;;;;;;4.20;2.40;;;27.80;99.90;;;;;;5032260;28;20406;-74
2022/09/06 08:21:25;;;;;;;6.80;2.50;;;28.30;99.90;;;;;;5032238;28;20803;-75
2022/09/06 08:23:53;;;;;;;3.30;2.10;;;29.40;99.90;;;;;;5032230;28;20439;-74
2022/09/06 08:26:21;;;;;;;2.90;2.40;;;30.60;99.90;;;;;;5031912;28;20429;-73
2022/09/06 08:28:47;;;;;;;4.37;2.83;;;31.90;95.20;;;;;;5032243;28;20458;-74
2022/09/06 08:31:15;;;;;;;3.60;2.27;;;33.10;86.00;;;;;;5032087;28;20429;-74
2022/09/06 08:33:42;;;;;;;1.90;1.80;;;33.70;75.00;;;;;;5032074;28;20436;-74
2022/09/06 08:36:09;;;;;;;3.20;1.87;;;34.40;72.00;;;;;;5031858;28;20418;-75
2022/09/06 08:38:35;;;;;;;2.60;2.30;;;35.10;66.00;;;;;;5031539;28;20426;-76
2022/09/06 08:41:24;;;;;;;2.47;2.27;;;36.00;62.70;;;;;;5031773;28;20995;-76
2022/09/06 08:44:02;;;;;;;2.30;2.00;;;36.70;57.90;;;;;;5031619;28;20907;-76
2022/09/06 08:46:45;;;;;;;2.57;2.37;;;37.90;55.40;;;;;;5031905;28;20410;-76
2022/09/06 08:49:11;;;;;;;3.87;2.50;;;38.40;52.50;;;;;;5032240;28;20411;-76
2022/09/06 08:51:48;;;;;;;2.60;1.80;;;39.00;51.80;;;;;;5031902;28;20483;-76
2022/09/06 08:54:38;;;;;;;3.67;1.87;;;39.80;50.70;;;;;;5030150;28;20424;-75
2022/09/06 08:57:32;;;;;;;4.07;2.07;;;41.10;48.20;;;;;;5031894;28;20468;-76
2022/09/06 09:00:02;;;;;;;1.93;1.83;;;41.40;45.40;;;;;;5031937;28;20406;-75
2022/09/06 09:02:46;;;;;;;2.23;1.77;;;42.00;43.30;;;;;;5031859;28;20410;-75
2022/09/06 09:05:36;;;;;;;1.97;1.60;;;42.50;42.30;;;;;;5031969;28;20792;-76
2022/09/06 09:08:19;;;;;;;1.93;1.73;;;42.60;42.10;;;;;;5031882;28;20435;-76
2022/09/06 09:10:56;;;;;;;2.60;2.40;;;42.60;40.70;;;;;;5031630;28;20381;-74
2022/09/06 09:13:58;;;;;;;2.37;1.80;;;43.10;40.10;;;;;;5031631;28;20395;-75
2022/09/06 09:16:24;;;;;;;2.10;2.00;;;43.40;40.30;;;;;;5031148;28;20755;-75
2022/09/06 09:18:57;;;;;;;2.63;2.17;;;43.50;40.50;;;;;;5031869;28;20404;-75
2022/09/06 09:21:24;;;;;;;3.27;2.13;;;44.00;39.60;;;;;;5035477;28;20435;-74
2022/09/06 09:23:55;;;;;;;2.90;2.27;;;44.30;38.50;;;;;;5035371;28;20495;-74
2022/09/06 09:26:24;;;;;;;2.40;2.20;;;44.20;37.50;;;;;;5035300;28;20372;-74
2022/09/06 09:29:16;;;;;;;2.63;1.93;;;43.80;37.40;;;;;;5034800;28;20777;-74
2022/09/06 09:31:51;;;;;;;2.37;1.80;;;44.00;37.80;;;;;;5034602;28;20430;-74
2022/09/06 09:34:35;;;;;;;2.20;2.00;;;44.70;37.60;;;;;;5033794;28;20416;-74
2022/09/06 09:37:19;;;;;;;2.30;2.00;;;44.70;35.80;;;;;;5035086;28;20410;-74
2022/09/06 09:39:46;;;;;;;2.47;2.27;;;44.90;36.90;;;;;;5034830;28;20380;-75
2022/09/06 09:42:23;;;;;;;2.97;2.10;;;45.30;37.60;;;;;;5034826;28;20421;-75
2022/09/06 09:44:48;;;;;;;2.20;2.00;;;45.80;35.70;;;;;;5014805;28;20397;-74
2022/09/06 09:47:29;;;;;;;1.93;1.83;;;46.10;36.10;;;;;;5015124;28;20386;-76
2022/09/06 09:49:55;;;;;;;2.20;2.00;;;46.70;35.00;;;;;;5013599;28;20660;-74
2022/09/06 09:52:29;;;;;;;2.50;2.00;;;47.00;34.50;;;;;;5015063;28;20390;-74
2022/09/06 09:54:58;;;;;;;2.00;1.90;;;47.40;34.70;;;;;;5016956;28;20427;-74
2022/09/06 09:57:24;;;;;;;2.07;1.87;;;47.50;33.50;;;;;;5034724;28;20384;-74
2022/09/06 09:59:56;;;;;;;2.53;2.33;;;47.70;33.60;;;;;;5034557;28;20418;-75
2022/09/06 10:02:34;;;;;;;2.13;1.97;;;48.20;34.20;;;;;;5034527;28;20571;-75
2022/09/06 10:05:12;;;;;;;2.43;2.23;;;49.10;33.00;;;;;;5033962;28;20806;-75
2022/09/06 10:07:49;;;;;;;2.53;2.33;;;49.20;33.00;;;;;;5034135;28;20497;-75
2022/09/06 10:10:29;;;;;;;2.70;2.50;;;49.50;33.10;;;;;;5034429;28;20405;-75
2022/09/06 10:13:18;;;;;;;2.50;2.33;;;50.20;31.90;;;;;;5034306;28;20409;-76
2022/09/06 10:15:44;;;;;;;2.93;2.73;;;50.60;31.10;;;;;;5034179;28;20406;-76
2022/09/06 10:18:36;;;;;;;2.67;2.47;;;51.10;30.50;;;;;;5034035;28;20754;-75
2022/09/06 10:21:13;;;;;;;2.60;2.50;;;50.40;30.20;;;;;;5032801;28;20551;-75
2022/09/06 10:24:29;;;;;;;2.43;2.23;;;50.70;30.10;;;;;;5034291;28;20422;-75
2022/09/06 10:26:59;;;;;;;3.30;1.67;;;50.10;29.40;;;;;;5032846;28;20422;-75
2022/09/06 10:29:36;;;;;;;2.10;2.00;;;49.30;29.80;;;;;;5032645;28;20449;-75
2022/09/06 10:32:32;;;;;;;2.10;2.00;;;49.30;29.70;;;;;;5033672;28;20422;-75
2022/09/06 10:35:15;;;;;;;4.90;1.97;;;49.50;30.20;;;;;;5032405;28;20438;-75
2022/09/06 10:37:48;;;;;;;2.20;2.00;;;49.50;30.90;;;;;;5034110;28;20460;-75
2022/09/06 10:40:31;;;;;;;3.03;2.77;;;50.30;30.40;;;;;;5033940;28;20460;-75
2022/09/06 10:43:00;;;;;;;2.70;2.20;;;51.00;29.00;;;;;;5033764;28;20510;-75
2022/09/06 10:46:01;;;;;;;3.17;2.70;;;50.80;28.60;;;;;;5045593;28;20586;-75
2022/09/06 10:48:36;;;;;;;2.77;2.57;;;50.60;29.10;;;;;;5014142;28;20485;-75
2022/09/06 10:51:17;;;;;;;2.43;2.23;;;51.30;28.70;;;;;;5013725;28;20427;-75
2022/09/06 10:53:55;;;;;;;2.60;2.40;;;51.50;29.50;;;;;;5013844;28;20476;-75
2022/09/06 10:56:32;;;;;;;2.80;2.60;;;51.40;28.30;;;;;;5025467;28;20410;-74
2022/09/06 10:59:15;;;;;;;2.90;2.70;;;51.70;28.60;;;;;;5033493;28;20488;-74
2022/09/06 11:01:53;;;;;;;2.77;2.57;;;52.30;28.90;;;;;;5033499;28;20446;-75
2022/09/06 11:04:37;;;;;;;2.87;2.73;;;52.40;28.10;;;;;;5032997;28;20425;-74
2022/09/06 11:07:29;;;;;;;3.10;2.90;;;52.90;28.50;;;;;;5033160;28;20508;-75
2022/09/06 11:10:02;;;;;;;3.03;2.83;;;52.40;27.70;;;;;;5031604;28;20489;-76
2022/09/06 11:12:47;;;;;;;3.40;3.20;;;52.50;28.30;;;;;;5033469;28;20413;-76
2022/09/06 11:15:15;;;;;;;2.77;2.67;;;53.10;28.30;;;;;;5032592;28;20433;-75
2022/09/06 11:18:08;;;;;;;3.73;3.53;;;53.70;28.30;;;;;;5032564;28;21002;-75
2022/09/06 11:21:06;;;;;;;3.57;3.37;;;54.10;27.70;;;;;;5031665;28;20482;-74
2022/09/06 11:23:43;;;;;;;3.30;3.10;;;54.90;27.50;;;;;;5031182;28;20446;-74
2022/09/06 11:26:21;;;;;;;4.80;4.60;;;55.30;27.00;;;;;;5031029;28;20504;-74
2022/09/06 11:28:52;;;;;;;6.30;3.60;;;55.30;26.10;;;;;;5031769;28;20460;-74
2022/09/06 11:31:26;;;;;;;3.70;3.50;;;55.40;26.80;;;;;;5032428;28;20459;-74
2022/09/06 11:34:20;;;;;;;3.63;3.43;;;55.10;26.70;;;;;;5032626;28;20441;-75
2022/09/06 11:36:51;;;;;;;3.37;3.27;;;55.40;26.30;;;;;;5032816;28;20735;-75
2022/09/06 11:39:25;;;;;;;3.93;3.73;;;56.00;26.80;;;;;;5032832;28;20807;-75
2022/09/06 11:41:51;;;;;;;3.90;3.70;;;56.60;26.30;;;;;;5032193;28;21193;-75
2022/09/06 11:45:11;;;;;;;3.70;3.40;;;55.90;25.70;;;;;;5032271;28;20441;-74
2022/09/06 11:47:40;;;;;;;3.53;3.23;;;55.20;26.70;;;;;;5031739;28;20206;-75
2022/09/06 11:50:21;;;;;;;3.67;3.47;;;54.90;25.40;;;;;;5032420;28;20771;-75
2022/09/06 11:52:56;;;;;;;3.67;3.47;;;54.80;26.00;;;;;;5032505;28;20417;-75
2022/09/06 11:55:42;;;;;;;4.10;3.90;;;55.00;26.30;;;;;;5031818;28;20444;-75
2022/09/06 11:58:11;;;;;;;4.30;4.07;;;55.40;26.50;;;;;;5031092;28;20405;-75
2022/09/06 12:00:37;;;;;;;4.53;4.33;;;56.00;26.90;;;;;;5031052;28;20421;-75
2022/09/06 12:03:07;;;;;;;5.03;4.83;;;56.70;26.00;;;;;;5032348;28;20410;-75
2022/09/06 12:05:53;;;;;;;5.23;4.93;;;56.60;25.20;;;;;;5030793;28;20194;-75
2022/09/06 12:08:29;;;;;;;5.20;5.00;;;56.80;25.80;;;;;;5031931;28;20429;-75
2022/09/06 12:11:04;;;;;;;5.00;4.80;;;57.20;25.30;;;;;;5032176;28;20784;-75
2022/09/06 12:13:46;;;;;;;5.17;4.90;;;57.80;25.60;;;;;;5032166;28;20405;-76
2022/09/06 12:16:13;;;;;;;5.57;5.23;;;57.90;25.60;;;;;;5031890;28;20466;-75
2022/09/06 12:18:47;;;;;;;7.83;7.33;;;57.80;25.40;;;;;;5032141;28;20406;-75
2022/09/06 12:21:39;;;;;;;4.63;4.43;;;58.10;25.70;;;;;;5032002;28;20413;-75
2022/09/06 12:24:25;;;;;;;4.70;4.50;;;58.00;24.80;;;;;;5031599;28;20516;-74
2022/09/06 12:27:06;;;;;;;4.30;4.00;;;57.50;24.40;;;;;;5032189;28;20969;-74
2022/09/06 12:29:32;;;;;;;4.10;3.90;;;56.60;26.00;;;;;;5030782;28;20413;-74
2022/09/06 12:32:02;;;;;;;4.50;4.10;;;55.90;25.30;;;;;;5031683;28;20507;-74
2022/09/06 12:34:32;;;;;;;5.33;4.83;;;55.90;25.50;;;;;;5030541;28;20717;-75
2022/09/06 12:37:04;;;;;;;5.00;4.60;;;56.30;25.90;;;;;;5031865;28;20449;-74
2022/09/06 12:39:30;;;;;;;4.17;3.97;;;56.70;25.80;;;;;;5030655;28;20530;-74
2022/09/06 12:42:09;;;;;;;4.73;4.53;;;56.70;25.60;;;;;;5031802;28;20792;-74
2022/09/06 12:44:39;;;;;;;4.43;4.03;;;56.90;25.30;;;;;;5031058;28;20806;-74
2022/09/06 12:47:11;;;;;;;4.40;4.10;;;57.20;25.30;;;;;;5030367;28;20414;-75
2022/09/06 12:49:37;;;;;;;4.23;4.03;;;57.10;24.00;;;;;;5031751;28;20416;-75
2022/09/06 12:52:11;;;;;;;3.90;3.70;;;56.50;23.80;;;;;;5031655;28;20449;-75
2022/09/06 12:54:48;;;;;;;3.80;3.50;;;56.20;23.50;;;;;;5035053;28;20557;-75
2022/09/06 12:57:20;;;;;;;3.10;3.00;;;56.10;23.60;;;;;;5035392;28;20412;-74
2022/09/06 12:59:48;;;;;;;3.60;3.40;;;55.60;23.20;;;;;;5035995;28;20405;-74
2022/09/06 13:02:19;;;;;;;3.50;3.30;;;55.30;24.30;;;;;;5035979;28;21086;-75
2022/09/06 13:04:55;;;;;;;3.50;3.30;;;55.50;23.80;;;;;;5035721;28;20463;-74
2022/09/06 13:07:23;;;;;;;3.70;3.50;;;55.50;24.60;;;;;;5035628;28;20413;-74
2022/09/06 13:09:51;;;;;;;4.40;4.00;;;55.40;24.20;;;;;;5035814;28;20410;-74